createdAt,value
2022-12-26T00:02:46.854Z,75.36
2022-12-26T00:07:48.428Z,75.34
2022-12-26T00:12:49.968Z,74.85
2022-12-26T00:17:51.483Z,74.09
2022-12-26T00:22:54.983Z,73.96
2022-12-26T00:27:56.824Z,73.40
2022-12-26T00:32:58.908Z,73.14
2022-12-26T00:38:01.288Z,72.84
2022-12-26T00:43:02.863Z,73.95
2022-12-26T00:48:04.460Z,73.85
2022-12-26T00:53:06.006Z,75.08
2022-12-26T00:58:07.628Z,76.00
2022-12-26T01:03:11.351Z,74.49
2022-12-26T01:08:23.310Z,72.24
2022-12-26T01:13:25.931Z,72.93
2022-12-26T01:18:27.672Z,74.56
2022-12-26T01:23:29.817Z,76.32
2022-12-26T01:28:31.435Z,76.23
2022-12-26T01:33:33.391Z,75.85
2022-12-26T01:38:35.084Z,76.71
2022-12-26T01:44:07.620Z,76.57
2022-12-26T01:49:15.751Z,75.75
2022-12-26T01:54:39.529Z,75.06
2022-12-26T01:59:41.622Z,75.14
2022-12-26T02:04:50.047Z,75.49
2022-12-26T02:09:52.072Z,74.39
2022-12-26T02:14:56.884Z,72.89
2022-12-26T02:20:13.352Z,72.58
2022-12-26T02:25:45.587Z,73.39
2022-12-26T02:31:05.376Z,73.46
2022-12-26T02:36:34.697Z,74.58
2022-12-26T02:41:48.353Z,74.80
2022-12-26T02:47:00.492Z,75.12
2022-12-26T02:52:19.758Z,74.53
2022-12-26T02:57:24.971Z,73.90
2022-12-26T03:02:45.623Z,72.52
2022-12-26T03:07:48.030Z,72.69
2022-12-26T03:12:57.976Z,73.79
2022-12-26T03:18:06.985Z,73.70
2022-12-26T03:23:13.722Z,73.60
2022-12-26T03:28:15.947Z,74.12
2022-12-26T03:33:35.217Z,75.57
2022-12-26T03:39:06.763Z,75.14
2022-12-26T03:44:20.477Z,77.19
2022-12-26T03:49:29.520Z,76.76
2022-12-26T03:54:56.233Z,78.15
2022-12-26T04:00:16.330Z,78.79
2022-12-26T04:05:18.997Z,79.62
2022-12-26T04:10:33.371Z,78.30
2022-12-26T04:15:47.441Z,74.00
2022-12-26T04:21:30.595Z,74.75
2022-12-26T04:26:37.417Z,74.97
2022-12-26T04:32:01.873Z,76.89
2022-12-26T04:37:07.139Z,77.60
2022-12-26T04:42:09.807Z,79.47
2022-12-26T04:47:11.881Z,77.50
2022-12-26T04:52:15.034Z,77.13
2022-12-26T04:57:16.569Z,78.96
2022-12-26T05:02:18.331Z,79.65
2022-12-26T05:07:31.190Z,79.39
2022-12-26T05:12:32.875Z,79.74
2022-12-26T05:17:34.407Z,78.75
2022-12-26T05:22:40.050Z,79.45
2022-12-26T05:27:44.192Z,78.46
2022-12-26T05:32:46.198Z,78.31
2022-12-26T05:37:47.773Z,78.03
2022-12-26T05:42:49.286Z,79.11
2022-12-26T05:47:52.177Z,79.69
2022-12-26T05:52:56.040Z,78.88
2022-12-26T05:58:00.435Z,76.75
2022-12-26T06:03:02.118Z,76.63
2022-12-26T06:08:04.415Z,76.07
2022-12-26T06:13:06.017Z,76.26
2022-12-26T06:18:07.724Z,76.64
2022-12-26T06:23:09.332Z,77.18
2022-12-26T06:28:10.926Z,78.56
2022-12-26T06:33:12.537Z,77.26
2022-12-26T06:38:14.348Z,76.84
2022-12-26T06:43:16.088Z,76.64
2022-12-26T06:48:17.767Z,76.22
2022-12-26T06:53:19.471Z,74.54
2022-12-26T06:58:21.560Z,73.80
2022-12-26T07:03:23.110Z,72.51
2022-12-26T07:08:24.667Z,72.45
2022-12-26T07:13:26.344Z,71.77
2022-12-26T07:18:27.957Z,72.08
2022-12-26T07:23:29.775Z,73.00
2022-12-26T07:28:32.223Z,72.11
2022-12-26T07:33:33.945Z,72.50
2022-12-26T07:38:35.613Z,73.41
2022-12-26T07:43:37.302Z,73.30
2022-12-26T07:48:38.919Z,74.23
2022-12-26T07:53:41.484Z,73.40
2022-12-26T07:58:43.146Z,74.24
2022-12-26T08:03:45.335Z,73.50
2022-12-26T08:08:51.044Z,74.67
2022-12-26T08:13:52.969Z,75.20
2022-12-26T08:18:54.578Z,75.44
2022-12-26T08:23:56.236Z,75.28
2022-12-26T08:28:57.976Z,75.76
2022-12-26T08:34:04.259Z,76.06
2022-12-26T08:39:13.465Z,74.45
2022-12-26T08:44:30.628Z,73.93
2022-12-26T08:49:32.346Z,75.04
2022-12-26T08:54:34.299Z,75.72
2022-12-26T08:59:35.929Z,75.72
2022-12-26T09:04:37.556Z,75.33
2022-12-26T09:09:39.136Z,74.86
2022-12-26T09:14:40.716Z,74.97
2022-12-26T09:19:42.868Z,75.71
2022-12-26T09:24:44.769Z,75.86
2022-12-26T09:29:46.320Z,75.10
2022-12-26T09:34:49.013Z,74.88
2022-12-26T09:39:50.590Z,75.19
2022-12-26T09:44:58.869Z,75.25
2022-12-26T09:50:09.458Z,73.94
2022-12-26T09:55:46.697Z,73.26
2022-12-26T10:01:13.896Z,73.51
2022-12-26T10:06:26.641Z,72.69
2022-12-26T10:11:43.558Z,73.81
2022-12-26T10:43:44.580Z,67.04
2022-12-26T10:48:46.490Z,66.59
2022-12-26T10:53:51.146Z,64.57
2022-12-26T11:04:31.217Z,66.67
2022-12-26T11:09:45.511Z,67.97
2022-12-26T11:20:16.000Z,69.98
2022-12-26T11:25:27.161Z,70.80
2022-12-26T11:30:34.634Z,73.73
2022-12-26T11:35:44.726Z,74.97
2022-12-26T11:40:48.911Z,75.66
2022-12-26T11:45:50.698Z,76.86
2022-12-26T12:02:19.927Z,77.39
2022-12-26T12:07:40.332Z,77.50
2022-12-26T12:12:59.962Z,77.67
2022-12-26T12:18:40.004Z,78.21
2022-12-26T12:24:26.570Z,78.50
2022-12-26T12:29:34.037Z,78.13
2022-12-26T12:34:51.412Z,78.13
2022-12-26T12:40:13.982Z,79.20
2022-12-26T12:45:29.095Z,79.41
2022-12-26T12:50:56.189Z,78.12
2022-12-26T12:56:42.225Z,78.18
2022-12-26T13:01:48.784Z,77.35
2022-12-26T13:07:22.821Z,77.26
2022-12-26T13:12:29.255Z,81.10
2022-12-26T13:17:36.348Z,80.73
2022-12-26T13:22:45.886Z,78.99
2022-12-26T13:27:49.488Z,77.89
2022-12-26T13:32:56.215Z,77.16
2022-12-26T13:43:26.485Z,76.32
2022-12-26T13:48:31.544Z,76.28
2022-12-26T17:02:34.494Z,66.77
2022-12-26T17:07:44.576Z,66.94
2022-12-26T17:12:48.629Z,65.98
2022-12-26T17:17:50.394Z,64.42
2022-12-26T17:22:53.652Z,62.98
2022-12-26T17:28:07.631Z,65.16
2022-12-26T17:33:28.732Z,65.31
2022-12-26T17:38:30.433Z,65.65
2022-12-26T17:43:31.946Z,64.81
2022-12-26T17:48:34.699Z,66.22
2022-12-26T17:53:42.186Z,66.29
2022-12-26T17:58:44.421Z,65.30
2022-12-26T18:03:45.973Z,64.12
2022-12-26T18:08:47.675Z,64.12
2022-12-26T18:13:49.244Z,64.33
2022-12-26T18:18:50.817Z,64.42
2022-12-26T18:23:52.359Z,64.60
2022-12-26T18:28:54.030Z,64.41
2022-12-26T18:33:56.003Z,63.05
2022-12-26T18:38:57.510Z,63.39
2022-12-26T18:43:58.996Z,62.26
2022-12-26T18:49:00.782Z,61.75
2022-12-26T18:54:02.384Z,61.47
2022-12-26T18:59:03.939Z,62.10
2022-12-26T19:20:23.172Z,58.91
2022-12-26T19:37:35.028Z,59.31
2022-12-26T19:42:37.895Z,58.68
2022-12-26T19:47:41.955Z,59.18
2022-12-26T19:52:44.246Z,59.73
2022-12-26T20:19:47.716Z,65.66
2022-12-26T20:30:18.081Z,63.86
2022-12-26T20:46:15.663Z,66.37
2022-12-26T21:40:22.686Z,69.97
2022-12-26T21:50:45.514Z,68.73
2022-12-26T21:55:47.417Z,69.12
2022-12-26T22:00:49.367Z,69.53
2022-12-26T22:05:51.092Z,70.36
2022-12-26T22:10:52.863Z,70.58
2022-12-26T22:15:56.378Z,72.34
2022-12-26T22:21:05.591Z,71.65
2022-12-26T22:26:08.985Z,70.40
2022-12-26T22:31:23.781Z,70.52
2022-12-26T22:36:26.827Z,70.40
2022-12-26T22:41:29.839Z,70.63
2022-12-26T22:46:31.769Z,69.86
2022-12-26T22:51:33.735Z,70.06
2022-12-26T22:56:35.426Z,70.54
2022-12-26T23:01:37.208Z,70.59
2022-12-26T23:06:39.795Z,70.05
2022-12-26T23:11:41.834Z,70.25
2022-12-26T23:16:56.374Z,70.01
2022-12-26T23:22:00.667Z,70.25
2022-12-26T23:27:11.622Z,69.32
2022-12-26T23:32:13.619Z,70.18
2022-12-26T23:37:15.267Z,68.42
2022-12-26T23:42:17.785Z,67.88
2022-12-26T23:47:19.471Z,68.51
2022-12-26T23:52:24.160Z,67.49
2022-12-26T23:57:30.753Z,67.59
